Погода Лунзуна неделю

Южная Провинция, Малави

16 - 22 июля
  • 16июля
    Сегодня
    +12°
    +26°
    Ясно и безоблачно
    ВремяПогодаТемператураВлажностьДавлениеВетер, м/сВероятность осадков
    02:00Ясно и безоблачно+15°C50 %674 мм1.7 м/с5 %
    05:00Ясно и безоблачно+13°C61 %674 мм2.3 м/с5 %
    08:00Ясно и безоблачно+20°C44 %677 мм1.6 м/с5 %
    11:00Ясно и безоблачно+24°C33 %678 мм1.1 м/с5 %
    14:00Ясно и безоблачно+26°C31 %676 мм2.0 м/с5 %
    17:00Ясно и безоблачно+23°C31 %676 мм2.9 м/с5 %
    20:00Ясно и безоблачно+19°C42 %676 мм3.4 м/с5 %
    23:00Ясно и безоблачно+16°C51 %675 мм3.1 м/с5 %
  • 17июля
    Среда
    +12°
    +26°
    Облачно с прояснениями
    ВремяПогодаТемператураВлажностьДавлениеВетер, м/сВероятность осадков
    02:00Ясно и безоблачно+14°C59 %674 мм2.4 м/с5 %
    05:00Практически безоблачно+12°C63 %674 мм1.9 м/с5 %
    08:00Ясно и безоблачно+19°C50 %678 мм2.1 м/с5 %
    11:00Практически безоблачно+24°C37 %679 мм0.9 м/с5 %
    14:00Облачно с прояснениями+26°C35 %677 мм1.1 м/с5 %
    17:00Небольшая облачность+23°C45 %677 мм1.2 м/с5 %
    20:00Ясно и безоблачно+18°C50 %676 мм2.9 м/с5 %
    23:00Ясно и безоблачно+17°C58 %676 мм3.3 м/с5 %
  • 18июля
    Четверг
    +13°
    +26°
    Облачно с прояснениями
    ВремяПогодаТемператураВлажностьДавлениеВетер, м/сВероятность осадков
    02:00Ясно и безоблачно+15°C61 %674 мм2.8 м/с5 %
    05:00Ясно и безоблачно+12°C71 %674 мм1.9 м/с5 %
    08:00Ясно и безоблачно+20°C50 %678 мм1.4 м/с5 %
    11:00Практически безоблачно+24°C37 %678 мм0.4 м/с5 %
    14:00Облачно с прояснениями+26°C36 %677 мм1.0 м/с5 %
    17:00Ясно и безоблачно+24°C41 %677 мм1.0 м/с5 %
    20:00Ясно и безоблачно+18°C63 %676 мм2.9 м/с5 %
    23:00Ясно и безоблачно+16°C68 %675 мм3.1 м/с5 %
  • 19июля
    Пятница
    +13°
    +27°
    Ясно и безоблачно
    ВремяПогодаТемператураВлажностьДавлениеВетер, м/сВероятность осадков
    02:00Ясно и безоблачно+15°C72 %674 мм2.4 м/с5 %
    05:00Ясно и безоблачно+13°C78 %674 мм1.8 м/с5 %
    08:00Ясно и безоблачно+20°C55 %677 мм1.1 м/с5 %
    11:00Ясно и безоблачно+24°C38 %678 мм1.8 м/с5 %
    14:00Ясно и безоблачно+27°C33 %676 мм2.2 м/с5 %
    17:00Ясно и безоблачно+25°C44 %676 мм2.0 м/с5 %
    20:00Ясно и безоблачно+20°C51 %676 мм3.0 м/с5 %
    23:00Ясно и безоблачно+18°C58 %674 мм2.5 м/с5 %
  • 20июля
    Суббота
    +13°
    +28°
    Ясно и безоблачно
    ВремяПогодаТемператураВлажностьДавлениеВетер, м/сВероятность осадков
    02:00Ясно и безоблачно+15°C67 %673 мм1.7 м/с5 %
    05:00Ясно и безоблачно+14°C68 %673 мм1.9 м/с5 %
    08:00Ясно и безоблачно+21°C51 %676 мм1.7 м/с5 %
    11:00Ясно и безоблачно+26°C32 %677 мм1.7 м/с5 %
    14:00Ясно и безоблачно+27°C32 %675 мм2.4 м/с5 %
    17:00Ясно и безоблачно+25°C41 %675 мм2.1 м/с5 %
    20:00Ясно и безоблачно+20°C48 %675 мм2.6 м/с5 %
    23:00Ясно и безоблачно+18°C56 %674 мм2.5 м/с5 %
Мы используем cookies
Соглашаюсь